createdAt,value
2017-12-29T00:00:27.096Z,3.2
2017-12-29T00:01:27.900Z,3.3
2017-12-29T00:02:28.624Z,3.3
2017-12-29T00:03:29.346Z,3.3
2017-12-29T00:04:30.076Z,3.2
2017-12-29T00:05:30.876Z,3.2
2017-12-29T00:06:31.646Z,3.2
2017-12-29T00:07:32.375Z,3.2
2017-12-29T00:08:33.155Z,3.3
2017-12-29T00:09:33.968Z,3.2
2017-12-29T00:10:34.766Z,3.2
2017-12-29T00:11:35.608Z,3.3
2017-12-29T00:12:36.347Z,3.3
2017-12-29T00:13:37.131Z,3.2
2017-12-29T00:14:37.860Z,3.3
2017-12-29T00:15:38.589Z,3.1
2017-12-29T00:16:39.315Z,3.1
2017-12-29T00:17:40.030Z,3.2
2017-12-29T00:18:40.762Z,3.2
2017-12-29T00:19:41.572Z,3.1
2017-12-29T00:20:42.305Z,3.1
2017-12-29T00:21:43.120Z,3.3
2017-12-29T00:22:43.850Z,3.1
2017-12-29T00:23:44.569Z,3.1
2017-12-29T00:24:45.335Z,3.3
2017-12-29T00:25:46.150Z,3.3
2017-12-29T00:26:46.924Z,3.2
2017-12-29T00:27:47.654Z,3.3
2017-12-29T00:28:48.384Z,3.2
2017-12-29T00:29:49.103Z,3.3
2017-12-29T00:30:49.889Z,3.3
2017-12-29T00:31:50.671Z,3.3
2017-12-29T00:32:51.394Z,3.2
2017-12-29T00:33:52.211Z,3.2
2017-12-29T00:34:53.014Z,3.2
2017-12-29T00:35:53.858Z,3.2
2017-12-29T00:36:54.675Z,3.2
2017-12-29T00:37:55.379Z,3.3
2017-12-29T00:38:56.110Z,3.2
2017-12-29T00:39:56.854Z,3.3
2017-12-29T00:40:57.687Z,3.3
2017-12-29T00:41:58.449Z,3.3
2017-12-29T00:42:59.176Z,3.3
2017-12-29T00:43:59.992Z,3.3
2017-12-29T00:45:00.803Z,3.3
2017-12-29T00:46:01.585Z,3.3
2017-12-29T00:47:02.316Z,3.4
2017-12-29T00:48:03.118Z,3.4
2017-12-29T00:49:03.870Z,3.3
2017-12-29T00:50:04.677Z,3.2
2017-12-29T00:51:05.440Z,3.2
2017-12-29T00:52:06.160Z,3.3
2017-12-29T00:53:06.888Z,3.3
2017-12-29T00:54:07.605Z,3.2
2017-12-29T00:55:08.394Z,3.3
2017-12-29T00:56:09.170Z,3.2
2017-12-29T00:57:09.969Z,3.3
2017-12-29T00:58:10.700Z,3.2
2017-12-29T00:59:11.474Z,3.3
2017-12-29T01:00:12.269Z,3.2
2017-12-29T01:01:13.127Z,3.3
2017-12-29T01:02:13.905Z,3.3
2017-12-29T01:03:14.633Z,3.3
2017-12-29T01:04:15.436Z,3.2
2017-12-29T01:05:16.229Z,3.3
2017-12-29T01:06:16.967Z,3.2
2017-12-29T01:07:17.776Z,3.3
2017-12-29T01:08:18.595Z,3.3
2017-12-29T01:09:19.309Z,3.3
2017-12-29T01:10:20.086Z,3.3
2017-12-29T01:11:20.908Z,3.3
2017-12-29T01:12:21.645Z,3.3
2017-12-29T01:13:22.447Z,3.3
2017-12-29T01:14:23.243Z,3.3
2017-12-29T01:15:23.968Z,3.3
2017-12-29T01:16:24.750Z,3.4
2017-12-29T01:17:25.488Z,3.3
2017-12-29T01:18:26.341Z,3.3
2017-12-29T01:19:27.056Z,3.2
2017-12-29T01:20:27.874Z,3.3
2017-12-29T01:21:28.647Z,3.2
2017-12-29T01:22:29.360Z,3.2
2017-12-29T01:23:30.079Z,3.2
2017-12-29T01:24:30.798Z,3.2
2017-12-29T01:25:31.599Z,3.2
2017-12-29T01:26:32.415Z,3.2
2017-12-29T01:27:33.193Z,3.2
2017-12-29T01:28:34.001Z,3.1
2017-12-29T01:29:34.813Z,3.1
2017-12-29T01:30:35.595Z,3.1
2017-12-29T01:31:36.375Z,3.1
2017-12-29T01:32:37.179Z,3.1
2017-12-29T01:33:37.966Z,2.9
2017-12-29T01:34:38.770Z,3.1
2017-12-29T01:35:39.504Z,3.0
2017-12-29T01:36:40.213Z,2.9
2017-12-29T01:37:40.954Z,3.0
2017-12-29T01:38:41.730Z,2.9
2017-12-29T01:39:42.517Z,3.0
2017-12-29T01:40:43.346Z,2.9
2017-12-29T01:41:44.150Z,3.0
2017-12-29T01:42:44.928Z,3.0
2017-12-29T01:43:45.766Z,3.0
2017-12-29T01:44:46.565Z,3.0
2017-12-29T01:45:47.288Z,2.9
2017-12-29T01:46:48.052Z,3.1
2017-12-29T01:47:48.839Z,3.0
2017-12-29T01:48:49.561Z,3.1
2017-12-29T01:49:50.362Z,3.0
2017-12-29T01:50:51.120Z,3.0
2017-12-29T01:51:51.956Z,2.9
2017-12-29T01:52:52.745Z,2.9
2017-12-29T01:53:53.472Z,2.9
2017-12-29T01:54:54.260Z,2.9
2017-12-29T01:55:54.996Z,2.9
2017-12-29T01:56:55.765Z,2.9
2017-12-29T01:57:56.557Z,2.9
2017-12-29T01:58:57.352Z,2.9
2017-12-29T01:59:58.070Z,2.9
2017-12-29T02:00:58.797Z,2.9
2017-12-29T02:01:59.585Z,2.8
2017-12-29T02:03:00.316Z,2.8
2017-12-29T02:04:01.119Z,2.7
2017-12-29T02:05:01.835Z,2.8
2017-12-29T02:06:02.580Z,2.8
2017-12-29T02:07:03.401Z,2.8
2017-12-29T02:08:04.179Z,2.8
2017-12-29T02:09:04.915Z,2.8
2017-12-29T02:10:05.634Z,2.8
2017-12-29T02:11:06.346Z,2.9
2017-12-29T02:12:07.173Z,2.9
2017-12-29T02:13:07.902Z,3.0
2017-12-29T02:14:08.624Z,2.9
2017-12-29T02:15:09.396Z,2.9
2017-12-29T02:16:10.205Z,2.9
2017-12-29T02:17:11.007Z,2.9
2017-12-29T02:18:11.798Z,2.9
2017-12-29T02:19:12.565Z,2.9
2017-12-29T02:20:13.234Z,2.9
2017-12-29T02:21:13.959Z,2.9
2017-12-29T02:22:14.686Z,3.0
2017-12-29T02:23:15.413Z,2.9
2017-12-29T02:24:16.206Z,2.9
2017-12-29T02:25:17.050Z,2.9
2017-12-29T02:26:17.791Z,3.0
2017-12-29T02:27:18.516Z,2.9
2017-12-29T02:28:19.325Z,2.9
2017-12-29T02:29:20.121Z,3.0
2017-12-29T02:30:20.904Z,3.0
2017-12-29T02:31:21.687Z,3.0
2017-12-29T02:32:22.502Z,3.0
2017-12-29T02:33:23.295Z,3.0
2017-12-29T02:34:24.031Z,3.0
2017-12-29T02:35:24.868Z,3.0
2017-12-29T02:36:25.612Z,3.0
2017-12-29T02:37:26.417Z,3.1
2017-12-29T02:38:27.232Z,3.0
2017-12-29T02:39:28.021Z,3.1
2017-12-29T02:40:28.875Z,3.0
2017-12-29T02:41:29.595Z,2.9
2017-12-29T02:42:30.311Z,3.0
2017-12-29T02:43:31.033Z,3.0
2017-12-29T02:44:31.825Z,2.9
2017-12-29T02:45:32.600Z,3.0
2017-12-29T02:46:33.322Z,2.9
2017-12-29T02:47:34.054Z,3.0
2017-12-29T02:48:34.777Z,2.9
2017-12-29T02:49:35.545Z,3.0
2017-12-29T02:50:36.328Z,3.0
2017-12-29T02:51:37.035Z,3.0
2017-12-29T02:52:37.759Z,2.8
2017-12-29T02:53:38.490Z,2.9
2017-12-29T02:54:39.300Z,2.9
2017-12-29T02:55:40.090Z,2.9
2017-12-29T02:56:40.876Z,2.9
2017-12-29T02:57:41.597Z,2.9
2017-12-29T02:58:42.404Z,2.9
2017-12-29T02:59:43.115Z,3.0
2017-12-29T03:00:43.991Z,2.8
2017-12-29T03:01:44.754Z,2.9
2017-12-29T03:02:45.489Z,2.9
2017-12-29T03:03:46.270Z,2.9
2017-12-29T03:04:47.016Z,3.0
2017-12-29T03:05:47.741Z,3.1
2017-12-29T03:06:48.468Z,3.0
2017-12-29T03:07:49.191Z,2.9
2017-12-29T03:08:49.912Z,3.0
2017-12-29T03:09:50.662Z,3.0
2017-12-29T03:10:51.500Z,3.0
2017-12-29T03:13:10.492Z,3.0
2017-12-29T03:14:11.215Z,3.0
2017-12-29T03:15:12.016Z,3.1
2017-12-29T03:16:12.832Z,3.1
2017-12-29T03:17:13.562Z,3.1
2017-12-29T03:18:14.340Z,3.1
2017-12-29T03:19:15.127Z,3.0
2017-12-29T03:20:15.854Z,3.1
2017-12-29T03:21:16.632Z,3.0
2017-12-29T03:22:17.352Z,3.1
2017-12-29T03:23:18.073Z,3.1
2017-12-29T03:24:18.843Z,3.1
2017-12-29T03:25:19.564Z,3.2
2017-12-29T03:26:20.335Z,3.2
2017-12-29T03:27:21.128Z,3.3
2017-12-29T03:28:21.921Z,3.2
2017-12-29T03:29:22.650Z,3.2
2017-12-29T03:30:23.371Z,3.2
2017-12-29T03:31:24.146Z,3.2
2017-12-29T03:32:24.944Z,3.2
2017-12-29T03:33:25.666Z,3.2
2017-12-29T03:34:26.404Z,3.1
2017-12-29T03:35:27.131Z,3.1
2017-12-29T03:36:27.905Z,3.1
2017-12-29T03:37:28.703Z,3.2
2017-12-29T03:38:29.486Z,3.1
2017-12-29T03:39:30.288Z,3.1
2017-12-29T03:40:31.008Z,3.1
2017-12-29T03:41:31.774Z,3.1
2017-12-29T03:42:32.589Z,3.1
2017-12-29T03:43:33.320Z,3.1
2017-12-29T03:44:34.105Z,3.1
2017-12-29T03:45:34.914Z,3.1
2017-12-29T03:46:35.751Z,3.1
2017-12-29T03:47:36.575Z,3.1
2017-12-29T03:48:37.354Z,3.1
2017-12-29T03:49:38.083Z,3.1
2017-12-29T03:50:38.805Z,3.1
2017-12-29T03:51:39.534Z,3.1
2017-12-29T03:52:40.256Z,3.1
2017-12-29T03:53:41.055Z,3.2
2017-12-29T03:54:41.842Z,3.1
2017-12-29T03:55:42.591Z,3.1
2017-12-29T03:56:43.364Z,3.1
2017-12-29T03:57:44.084Z,3.1
2017-12-29T03:58:44.870Z,3.1
2017-12-29T03:59:45.636Z,3.0
2017-12-29T04:00:46.425Z,3.0
2017-12-29T04:01:47.155Z,3.0
2017-12-29T04:02:47.868Z,3.1
2017-12-29T04:03:48.602Z,3.0
2017-12-29T04:04:49.376Z,2.9
2017-12-29T04:05:50.184Z,3.0
2017-12-29T04:06:50.912Z,3.0
2017-12-29T04:07:51.637Z,2.9
2017-12-29T04:08:52.464Z,2.9
2017-12-29T04:09:53.249Z,2.9
2017-12-29T04:10:54.044Z,2.9
2017-12-29T04:11:54.766Z,2.9
2017-12-29T04:12:55.494Z,3.0
2017-12-29T04:13:56.284Z,3.0
2017-12-29T04:14:57.017Z,3.0
2017-12-29T04:15:57.794Z,3.0
2017-12-29T04:16:58.565Z,2.9
2017-12-29T04:17:59.284Z,2.9
2017-12-29T04:19:00.095Z,3.0
2017-12-29T04:20:00.815Z,3.0
2017-12-29T04:21:01.536Z,3.0
2017-12-29T04:22:02.307Z,2.9
2017-12-29T04:23:03.098Z,2.9
2017-12-29T04:24:03.769Z,2.9
2017-12-29T04:25:04.484Z,2.9
2017-12-29T04:26:05.218Z,3.0
2017-12-29T04:27:06.059Z,2.9
2017-12-29T04:28:06.786Z,2.9
2017-12-29T04:29:07.586Z,2.9
2017-12-29T04:30:08.382Z,2.8
2017-12-29T04:31:09.118Z,2.8
2017-12-29T04:32:09.967Z,2.9
2017-12-29T04:33:10.764Z,2.9
2017-12-29T04:34:11.486Z,2.9
2017-12-29T04:35:12.296Z,2.9
2017-12-29T04:36:13.090Z,2.8
2017-12-29T04:37:13.896Z,2.8
2017-12-29T04:38:14.706Z,2.8
2017-12-29T04:39:15.528Z,2.8
2017-12-29T04:40:16.370Z,2.9
2017-12-29T04:41:17.150Z,2.8
2017-12-29T04:42:17.902Z,2.8
2017-12-29T04:43:18.674Z,2.8
2017-12-29T04:44:19.404Z,2.8
2017-12-29T04:45:20.130Z,2.7
2017-12-29T04:46:20.919Z,2.8
2017-12-29T04:47:21.696Z,2.7
2017-12-29T04:48:22.478Z,2.7
2017-12-29T04:49:23.194Z,2.7
2017-12-29T04:50:23.913Z,2.7
2017-12-29T04:51:24.639Z,2.7
2017-12-29T04:52:25.366Z,2.6
2017-12-29T04:53:26.170Z,2.6
2017-12-29T04:54:26.945Z,2.6
2017-12-29T04:55:27.660Z,2.5
2017-12-29T04:56:28.380Z,2.5
2017-12-29T04:57:29.121Z,2.5
2017-12-29T04:58:29.904Z,2.5
2017-12-29T04:59:30.624Z,2.5
2017-12-29T05:00:31.368Z,2.4
2017-12-29T05:01:32.087Z,2.5
2017-12-29T05:02:32.801Z,2.4
2017-12-29T05:03:33.513Z,2.4
2017-12-29T05:04:34.244Z,2.5
2017-12-29T05:05:34.964Z,2.4
2017-12-29T05:06:35.681Z,2.5
2017-12-29T05:07:36.395Z,2.5
2017-12-29T05:08:37.197Z,2.4
2017-12-29T05:09:37.907Z,2.5
2017-12-29T05:10:38.635Z,2.4
2017-12-29T05:11:39.434Z,2.4
2017-12-29T05:12:40.159Z,2.4
2017-12-29T05:13:40.954Z,2.3
2017-12-29T05:14:41.675Z,2.3
2017-12-29T05:15:42.401Z,2.3
2017-12-29T05:16:43.186Z,2.4
2017-12-29T05:17:43.975Z,2.4
2017-12-29T05:18:44.695Z,2.4
2017-12-29T05:19:45.499Z,2.5
2017-12-29T05:20:46.330Z,2.5
2017-12-29T05:21:47.099Z,2.5
2017-12-29T05:22:47.825Z,2.5
2017-12-29T05:23:48.552Z,2.4
2017-12-29T05:24:49.279Z,2.5
2017-12-29T05:25:50.052Z,2.5
2017-12-29T05:26:50.865Z,2.4
2017-12-29T05:27:51.650Z,2.5
2017-12-29T05:28:52.486Z,2.4
2017-12-29T05:29:53.213Z,2.3
2017-12-29T05:30:54.026Z,2.3
2017-12-29T05:31:54.826Z,2.3
2017-12-29T05:32:55.615Z,2.3
2017-12-29T05:33:56.386Z,2.3
2017-12-29T05:34:57.177Z,2.3
2017-12-29T05:35:57.964Z,2.3
2017-12-29T05:36:58.694Z,2.3
2017-12-29T05:37:59.413Z,2.3
2017-12-29T05:39:00.174Z,2.3
2017-12-29T05:40:00.916Z,2.3
2017-12-29T05:41:01.687Z,2.3
2017-12-29T05:42:02.479Z,2.3
2017-12-29T05:43:03.256Z,2.3
2017-12-29T05:44:04.096Z,2.3
2017-12-29T05:45:04.896Z,2.3
2017-12-29T05:46:05.704Z,2.3
2017-12-29T05:47:06.509Z,2.3
2017-12-29T05:48:07.235Z,2.3
2017-12-29T05:49:08.015Z,2.3
2017-12-29T05:50:08.736Z,2.3
2017-12-29T05:51:09.526Z,2.3
2017-12-29T05:52:10.309Z,2.3
2017-12-29T05:53:11.040Z,2.2
2017-12-29T05:54:11.848Z,2.2
2017-12-29T05:55:12.556Z,2.2
2017-12-29T05:56:13.354Z,2.3
2017-12-29T05:57:14.155Z,2.2
2017-12-29T05:58:14.935Z,2.2
2017-12-29T05:59:15.659Z,2.2
2017-12-29T06:00:16.466Z,2.2
2017-12-29T06:01:17.250Z,2.3
2017-12-29T06:02:18.113Z,2.3
2017-12-29T06:03:18.877Z,2.1
2017-12-29T06:04:19.685Z,2.2
2017-12-29T06:05:20.471Z,2.2
2017-12-29T06:06:21.185Z,2.1
2017-12-29T06:07:21.927Z,2.2
2017-12-29T06:08:22.723Z,2.2
2017-12-29T06:09:23.492Z,2.2
2017-12-29T06:10:24.255Z,2.2
2017-12-29T06:11:24.996Z,2.2
2017-12-29T06:12:25.850Z,2.2
2017-12-29T06:13:26.564Z,2.1
2017-12-29T06:14:27.292Z,2.2
2017-12-29T06:15:28.005Z,2.1
2017-12-29T06:16:28.724Z,2.1
2017-12-29T06:17:29.461Z,2.1
2017-12-29T06:18:30.255Z,2.1
2017-12-29T06:19:30.986Z,2.1
2017-12-29T06:20:31.804Z,2.1
2017-12-29T06:21:32.524Z,2.1
2017-12-29T06:22:33.250Z,2.1
2017-12-29T06:23:34.043Z,2.1
2017-12-29T06:24:34.765Z,2.2
2017-12-29T06:25:35.623Z,2.1
2017-12-29T06:26:36.364Z,2.1
2017-12-29T06:27:37.076Z,2.0
2017-12-29T06:28:37.879Z,2.0
2017-12-29T06:29:38.601Z,2.1
2017-12-29T06:30:39.339Z,2.1
2017-12-29T06:31:40.103Z,2.1
2017-12-29T06:32:40.834Z,2.1
2017-12-29T06:33:41.554Z,2.1
2017-12-29T06:34:42.277Z,2.1
2017-12-29T06:35:42.983Z,2.0
2017-12-29T06:36:43.706Z,2.0
2017-12-29T06:37:44.535Z,2.1
2017-12-29T06:38:45.257Z,2.2
2017-12-29T06:39:46.073Z,2.2
2017-12-29T06:40:46.804Z,2.2
2017-12-29T06:41:47.656Z,2.2
2017-12-29T06:42:48.446Z,2.1
2017-12-29T06:43:49.276Z,2.2
2017-12-29T06:44:49.951Z,2.1
2017-12-29T06:45:50.765Z,2.2
2017-12-29T06:46:51.548Z,2.3
2017-12-29T06:47:52.316Z,2.2
2017-12-29T06:48:53.085Z,2.1
2017-12-29T06:49:53.815Z,2.1
2017-12-29T06:50:54.535Z,2.2
2017-12-29T06:51:55.334Z,2.3
2017-12-29T06:52:56.056Z,2.3
2017-12-29T06:53:56.773Z,2.2
2017-12-29T06:54:57.494Z,2.2
2017-12-29T06:55:58.224Z,2.2
2017-12-29T06:56:58.947Z,2.2
2017-12-29T06:57:59.678Z,2.2
2017-12-29T06:59:00.444Z,2.2
2017-12-29T07:00:01.156Z,2.2
2017-12-29T07:01:01.889Z,2.2
2017-12-29T07:02:02.668Z,2.1
2017-12-29T07:03:03.428Z,2.1
2017-12-29T07:04:04.235Z,2.3
2017-12-29T07:05:05.014Z,2.2
2017-12-29T07:06:05.777Z,2.3
2017-12-29T07:07:06.465Z,2.3
2017-12-29T07:08:07.264Z,2.4
2017-12-29T07:09:07.993Z,2.5
2017-12-29T07:10:08.719Z,2.4
2017-12-29T07:11:09.514Z,2.5
2017-12-29T07:12:10.242Z,2.5
2017-12-29T07:13:11.028Z,2.7
2017-12-29T07:14:11.799Z,2.6
2017-12-29T07:15:12.724Z,2.7
2017-12-29T07:16:13.504Z,2.6
2017-12-29T07:17:14.232Z,2.7
2017-12-29T07:18:14.924Z,2.7
2017-12-29T07:19:15.649Z,2.6
2017-12-29T07:20:16.494Z,2.5
2017-12-29T07:21:17.216Z,2.6
2017-12-29T07:22:18.038Z,2.6
2017-12-29T07:23:18.765Z,2.5
2017-12-29T07:24:19.492Z,2.5
2017-12-29T07:25:20.223Z,2.5
2017-12-29T07:26:20.997Z,2.5
2017-12-29T07:27:21.724Z,2.6
2017-12-29T07:28:22.440Z,2.6
2017-12-29T07:29:23.165Z,2.6
2017-12-29T07:30:23.898Z,2.6
2017-12-29T07:31:24.665Z,2.7
2017-12-29T07:32:25.444Z,2.6
2017-12-29T07:33:26.174Z,2.6
2017-12-29T07:34:26.897Z,2.6
2017-12-29T07:35:27.626Z,2.6
2017-12-29T07:36:28.436Z,2.6
2017-12-29T07:37:29.245Z,2.6
2017-12-29T07:38:30.104Z,2.5
2017-12-29T07:39:30.835Z,2.6
2017-12-29T07:40:31.563Z,2.7
2017-12-29T07:41:32.294Z,2.6
2017-12-29T07:42:32.995Z,2.5
2017-12-29T07:43:33.806Z,2.5
2017-12-29T07:44:34.625Z,2.5
2017-12-29T07:45:35.336Z,2.4
2017-12-29T07:46:36.064Z,2.4
2017-12-29T07:47:36.799Z,2.5
2017-12-29T07:48:37.579Z,2.5
2017-12-29T07:49:38.361Z,2.5
2017-12-29T07:50:39.154Z,2.6
2017-12-29T07:51:39.890Z,2.5
2017-12-29T07:52:40.671Z,2.5
2017-12-29T07:53:41.449Z,2.5
2017-12-29T07:54:42.187Z,2.6
2017-12-29T07:55:42.908Z,2.5
2017-12-29T07:56:43.713Z,2.5
2017-12-29T07:57:44.444Z,2.6
2017-12-29T07:58:45.167Z,2.6
2017-12-29T07:59:45.894Z,2.5
2017-12-29T08:00:46.624Z,2.5
2017-12-29T08:01:47.414Z,2.6
2017-12-29T08:02:48.209Z,2.7
2017-12-29T08:03:49.039Z,2.6
2017-12-29T08:04:49.775Z,2.6
2017-12-29T08:05:50.515Z,2.6
2017-12-29T08:06:51.187Z,2.7
2017-12-29T08:07:51.998Z,2.6
2017-12-29T08:08:52.796Z,2.6
2017-12-29T08:09:53.516Z,2.5
2017-12-29T08:10:54.249Z,2.6
2017-12-29T08:11:55.022Z,2.6
2017-12-29T08:12:55.746Z,2.6
2017-12-29T08:13:56.543Z,2.5
2017-12-29T08:14:57.283Z,2.5
2017-12-29T08:15:57.998Z,2.5
2017-12-29T08:16:58.735Z,2.5
2017-12-29T08:17:59.454Z,2.5
2017-12-29T08:19:00.185Z,2.5
2017-12-29T08:20:00.986Z,2.5
2017-12-29T08:21:01.822Z,2.5
2017-12-29T08:22:02.635Z,2.5
2017-12-29T08:23:03.364Z,2.5
2017-12-29T08:24:04.096Z,2.5
2017-12-29T08:25:04.885Z,2.6
2017-12-29T08:26:05.727Z,2.6
2017-12-29T08:27:06.470Z,2.6
2017-12-29T08:28:07.256Z,2.6
2017-12-29T08:29:08.048Z,2.6
2017-12-29T08:30:08.773Z,2.6
2017-12-29T08:31:09.609Z,2.5
2017-12-29T08:32:10.347Z,2.5
2017-12-29T08:33:11.087Z,2.5
2017-12-29T08:34:11.858Z,2.5
2017-12-29T08:35:12.596Z,2.6
2017-12-29T08:36:13.395Z,2.5
2017-12-29T08:37:14.121Z,2.4
2017-12-29T08:38:14.894Z,2.4
2017-12-29T08:39:15.619Z,2.5
2017-12-29T08:40:16.414Z,2.5
2017-12-29T08:41:17.134Z,2.4
2017-12-29T08:42:17.912Z,2.5
2017-12-29T08:43:18.636Z,2.4
2017-12-29T08:44:19.376Z,2.5
2017-12-29T08:45:20.104Z,2.4
2017-12-29T08:46:20.835Z,2.4
2017-12-29T08:47:21.614Z,2.4
2017-12-29T08:48:22.341Z,2.4
2017-12-29T08:49:23.076Z,2.4
2017-12-29T08:50:23.866Z,2.5
2017-12-29T08:51:24.687Z,2.4
2017-12-29T08:52:25.417Z,2.4
2017-12-29T08:53:26.234Z,2.5
2017-12-29T08:54:26.964Z,2.4
2017-12-29T08:55:27.680Z,2.5
2017-12-29T08:56:28.484Z,2.5
2017-12-29T08:57:29.262Z,2.4
2017-12-29T08:58:29.976Z,2.4
2017-12-29T08:59:30.788Z,2.3
2017-12-29T09:00:31.514Z,2.3
2017-12-29T09:01:32.235Z,2.3
2017-12-29T09:02:33.007Z,2.4
2017-12-29T09:03:33.808Z,2.3
2017-12-29T09:04:34.548Z,2.3
2017-12-29T09:05:35.345Z,2.3
2017-12-29T09:06:36.084Z,2.3
2017-12-29T09:07:36.856Z,2.5
2017-12-29T09:08:37.662Z,2.4
2017-12-29T09:09:38.385Z,2.4
2017-12-29T09:10:39.104Z,2.4
2017-12-29T09:11:39.825Z,2.5
2017-12-29T09:12:40.593Z,2.5
2017-12-29T09:13:41.326Z,2.5
2017-12-29T09:14:42.123Z,2.5
2017-12-29T09:15:42.855Z,2.5
2017-12-29T09:16:43.578Z,2.5
2017-12-29T09:17:44.312Z,2.5
2017-12-29T09:18:45.147Z,2.6
2017-12-29T09:19:45.945Z,2.6
2017-12-29T09:20:46.666Z,2.7
2017-12-29T09:21:47.399Z,2.7
2017-12-29T09:22:48.194Z,2.6
2017-12-29T09:23:48.973Z,2.7
2017-12-29T09:24:49.696Z,2.7
2017-12-29T09:25:50.505Z,2.7
2017-12-29T09:26:51.329Z,2.8
2017-12-29T09:27:52.085Z,2.7
2017-12-29T09:28:52.826Z,2.9
2017-12-29T09:29:53.608Z,2.9
2017-12-29T09:30:54.323Z,2.9
2017-12-29T09:31:55.104Z,2.9
2017-12-29T09:32:55.874Z,2.9
2017-12-29T09:33:56.604Z,2.9
2017-12-29T09:34:57.343Z,2.9
2017-12-29T09:35:58.116Z,3.0
2017-12-29T09:36:58.839Z,3.1
2017-12-29T09:37:59.613Z,3.1
2017-12-29T09:39:00.336Z,3.1
2017-12-29T09:40:01.129Z,3.1
2017-12-29T09:41:01.910Z,3.1
2017-12-29T09:42:02.624Z,3.2
2017-12-29T09:43:03.355Z,3.1
2017-12-29T09:44:04.101Z,3.2
2017-12-29T09:45:04.905Z,3.2
2017-12-29T09:46:05.636Z,3.4
2017-12-29T09:47:06.476Z,3.4
2017-12-29T09:48:07.205Z,3.3
2017-12-29T09:49:07.927Z,3.3
2017-12-29T09:50:08.741Z,3.4
2017-12-29T09:51:09.466Z,3.4
2017-12-29T09:52:10.298Z,3.5
2017-12-29T09:53:10.977Z,3.6
2017-12-29T09:54:11.774Z,3.6
2017-12-29T09:55:12.542Z,3.5
2017-12-29T09:56:13.368Z,3.6
2017-12-29T09:57:14.097Z,3.7
2017-12-29T09:58:14.885Z,3.8
2017-12-29T09:59:15.616Z,3.6
2017-12-29T10:00:16.409Z,3.7
2017-12-29T10:01:17.137Z,3.7
2017-12-29T10:02:17.856Z,3.7
2017-12-29T10:03:19.659Z,3.6
2017-12-29T10:04:20.601Z,3.8
2017-12-29T10:05:21.388Z,3.7
2017-12-29T10:06:22.125Z,3.6
2017-12-29T10:07:22.898Z,3.8
2017-12-29T10:08:23.714Z,3.7
2017-12-29T10:09:24.444Z,3.7
2017-12-29T10:10:25.186Z,3.8
2017-12-29T10:11:25.976Z,3.8
2017-12-29T10:12:27.741Z,3.9
2017-12-29T10:13:28.435Z,3.9
2017-12-29T10:14:30.320Z,4.0
2017-12-29T10:15:30.991Z,4.1
2017-12-29T10:16:31.761Z,3.9
2017-12-29T10:17:32.542Z,3.9
2017-12-29T10:18:33.406Z,4.0
2017-12-29T10:19:34.158Z,4.0
2017-12-29T10:20:34.968Z,4.1
2017-12-29T10:21:35.768Z,4.3
2017-12-29T10:22:36.553Z,4.3
2017-12-29T10:23:37.282Z,4.2
2017-12-29T10:24:38.039Z,4.3
2017-12-29T10:25:38.772Z,4.3
2017-12-29T10:26:39.500Z,4.3
2017-12-29T10:27:40.229Z,4.4
2017-12-29T10:28:41.087Z,4.4
2017-12-29T10:29:41.810Z,4.4
2017-12-29T10:30:42.586Z,4.3
2017-12-29T10:31:43.414Z,4.3
2017-12-29T10:32:44.134Z,4.3
2017-12-29T10:33:44.906Z,4.5
2017-12-29T10:34:45.705Z,4.6
2017-12-29T10:35:46.504Z,4.6
2017-12-29T10:36:47.236Z,4.5
2017-12-29T10:37:47.954Z,4.5
2017-12-29T10:38:48.678Z,4.5
2017-12-29T10:39:49.475Z,4.6
2017-12-29T10:40:50.283Z,4.6
2017-12-29T10:41:51.088Z,4.5
2017-12-29T10:42:51.876Z,4.4
2017-12-29T10:43:52.609Z,4.3
2017-12-29T10:44:53.413Z,4.3
2017-12-29T10:45:54.151Z,4.4
2017-12-29T10:46:54.919Z,4.3
2017-12-29T10:47:55.645Z,4.4
2017-12-29T10:48:56.420Z,4.4
2017-12-29T10:49:57.232Z,4.5
2017-12-29T10:50:57.949Z,4.4
2017-12-29T10:51:58.713Z,4.5
2017-12-29T10:53:00.075Z,4.6
2017-12-29T10:54:00.857Z,4.5
2017-12-29T10:55:01.590Z,4.6
2017-12-29T10:56:02.384Z,4.6
2017-12-29T10:57:03.106Z,4.6
2017-12-29T10:58:03.909Z,4.7
2017-12-29T10:59:04.690Z,4.7
2017-12-29T11:00:05.404Z,4.8
2017-12-29T11:01:06.134Z,4.9
2017-12-29T11:02:06.862Z,4.9
2017-12-29T11:03:07.600Z,4.8
2017-12-29T11:04:08.430Z,5.0
2017-12-29T11:05:10.215Z,4.9
2017-12-29T11:06:10.886Z,4.9
2017-12-29T11:07:11.666Z,5.0
2017-12-29T11:08:12.459Z,5.1
2017-12-29T11:09:13.335Z,5.2
2017-12-29T11:10:14.063Z,5.2
2017-12-29T11:11:14.924Z,5.3
2017-12-29T11:12:15.591Z,5.1
2017-12-29T11:13:16.314Z,5.0
2017-12-29T11:14:17.083Z,5.1
2017-12-29T11:15:17.804Z,5.2
2017-12-29T11:16:18.531Z,5.1
2017-12-29T11:17:19.341Z,5.2
2017-12-29T11:18:20.065Z,5.2
2017-12-29T11:19:20.844Z,5.1
2017-12-29T11:20:21.565Z,5.2
2017-12-29T11:21:22.380Z,5.2
2017-12-29T11:22:23.097Z,5.2
2017-12-29T11:23:23.894Z,5.3
2017-12-29T11:24:24.624Z,5.2
2017-12-29T11:25:25.346Z,5.2
2017-12-29T11:26:26.204Z,5.3
2017-12-29T11:27:26.936Z,5.2
2017-12-29T11:28:27.735Z,5.2
2017-12-29T11:29:28.534Z,5.2
2017-12-29T11:30:29.254Z,5.3
2017-12-29T11:31:30.034Z,5.3
2017-12-29T11:32:30.763Z,5.3
2017-12-29T11:33:31.486Z,5.4
2017-12-29T11:34:32.290Z,5.4
2017-12-29T11:35:33.018Z,5.4
2017-12-29T11:36:33.796Z,5.4
2017-12-29T11:38:48.788Z,5.4
2017-12-29T11:39:49.511Z,5.5
2017-12-29T11:40:50.257Z,5.6
2017-12-29T11:41:51.014Z,5.6
2017-12-29T11:42:51.740Z,5.6
2017-12-29T11:43:52.535Z,5.5
2017-12-29T11:44:53.375Z,5.5
2017-12-29T11:45:54.095Z,5.6
2017-12-29T11:46:54.874Z,5.7
2017-12-29T11:47:55.606Z,5.7
2017-12-29T11:48:56.408Z,5.7
2017-12-29T11:49:57.203Z,5.7
2017-12-29T11:50:57.936Z,5.7
2017-12-29T11:51:58.787Z,5.7
2017-12-29T11:52:59.515Z,5.8
2017-12-29T11:54:00.315Z,5.6
2017-12-29T11:55:01.032Z,5.6
2017-12-29T11:56:01.824Z,5.7
2017-12-29T11:57:02.596Z,5.6
2017-12-29T11:58:03.408Z,5.6
2017-12-29T11:59:04.208Z,5.6
2017-12-29T12:00:05.015Z,5.7
2017-12-29T12:01:05.738Z,5.9
2017-12-29T12:02:06.515Z,5.8
2017-12-29T12:03:07.259Z,6.1
2017-12-29T12:04:08.045Z,5.9
2017-12-29T12:05:08.776Z,5.8
2017-12-29T12:06:09.498Z,5.9
2017-12-29T12:07:10.237Z,5.9
2017-12-29T12:08:11.047Z,5.9
2017-12-29T12:09:11.775Z,5.8
2017-12-29T12:10:12.579Z,5.9
2017-12-29T12:11:13.313Z,6.1
2017-12-29T12:12:14.194Z,6.1
2017-12-29T12:13:14.953Z,6.1
2017-12-29T12:14:15.764Z,6.2
2017-12-29T12:15:16.497Z,6.1
2017-12-29T12:16:17.317Z,6.0
2017-12-29T12:17:18.182Z,5.7
2017-12-29T12:18:18.906Z,5.6
2017-12-29T12:19:19.702Z,5.9
2017-12-29T12:20:20.439Z,5.9
2017-12-29T12:21:21.244Z,5.6
2017-12-29T12:22:22.087Z,5.5
2017-12-29T12:23:23.808Z,5.3
2017-12-29T12:24:25.436Z,5.1
2017-12-29T12:25:26.664Z,5.1
2017-12-29T12:26:27.345Z,5.0
2017-12-29T12:27:28.075Z,4.9
2017-12-29T12:28:28.818Z,5.0
2017-12-29T12:29:29.606Z,5.1
2017-12-29T12:30:30.389Z,5.0
2017-12-29T12:31:31.154Z,5.2
2017-12-29T12:32:31.885Z,5.1
2017-12-29T12:33:32.622Z,5.1
2017-12-29T12:34:33.416Z,5.0
2017-12-29T12:35:34.224Z,5.1
2017-12-29T12:36:35.001Z,5.0
2017-12-29T12:37:35.727Z,5.1
2017-12-29T12:38:36.585Z,5.2
2017-12-29T12:39:37.303Z,5.3
2017-12-29T12:40:38.049Z,5.2
2017-12-29T12:41:38.770Z,5.1
2017-12-29T12:42:39.559Z,5.1
2017-12-29T12:43:40.345Z,5.0
2017-12-29T12:44:41.131Z,5.1
2017-12-29T12:45:41.915Z,5.1
2017-12-29T12:46:42.649Z,5.0
2017-12-29T12:47:43.464Z,5.1
2017-12-29T12:48:44.311Z,5.0
2017-12-29T12:49:45.115Z,5.1
2017-12-29T12:50:45.921Z,5.1
2017-12-29T12:51:46.713Z,5.0
2017-12-29T12:52:47.424Z,4.9
2017-12-29T12:53:48.167Z,5.0
2017-12-29T12:54:48.892Z,4.9
2017-12-29T12:55:49.608Z,4.9
2017-12-29T12:56:50.361Z,4.8
2017-12-29T12:57:51.157Z,4.8
2017-12-29T12:58:52.008Z,4.8
2017-12-29T12:59:52.790Z,4.7
2017-12-29T13:00:53.526Z,4.8
2017-12-29T13:01:54.245Z,4.7
2017-12-29T13:02:54.970Z,4.8
2017-12-29T13:03:55.740Z,4.8
2017-12-29T13:04:56.455Z,4.8
2017-12-29T13:05:57.188Z,4.7
2017-12-29T13:06:57.967Z,4.7
2017-12-29T13:07:58.694Z,4.7
2017-12-29T13:08:59.419Z,4.7
2017-12-29T13:10:00.265Z,4.6
2017-12-29T13:11:00.993Z,4.7
2017-12-29T13:12:01.815Z,4.7
2017-12-29T13:13:02.583Z,4.8
2017-12-29T13:14:03.400Z,4.7
2017-12-29T13:15:04.149Z,4.8
2017-12-29T13:16:04.961Z,4.7
2017-12-29T13:17:05.761Z,4.8
2017-12-29T13:18:06.530Z,4.7
2017-12-29T13:19:07.338Z,4.7
2017-12-29T13:20:08.291Z,4.7
2017-12-29T13:21:09.108Z,4.7
2017-12-29T13:22:09.863Z,4.7
2017-12-29T13:23:10.680Z,4.7
2017-12-29T13:24:11.417Z,4.7
2017-12-29T13:25:12.196Z,4.6
2017-12-29T13:26:12.992Z,4.7
2017-12-29T13:27:13.765Z,4.6
2017-12-29T13:28:14.557Z,4.6
2017-12-29T13:29:15.408Z,4.6
2017-12-29T13:30:16.177Z,4.6
2017-12-29T13:31:16.986Z,4.5
2017-12-29T13:32:17.717Z,4.6
2017-12-29T13:33:18.455Z,4.6
2017-12-29T13:34:19.177Z,4.5
2017-12-29T13:35:19.955Z,4.5
2017-12-29T13:36:20.680Z,4.5
2017-12-29T13:37:21.476Z,4.6
2017-12-29T13:38:22.266Z,4.6
2017-12-29T13:39:23.046Z,4.7
2017-12-29T13:40:23.895Z,4.7
2017-12-29T13:41:24.624Z,4.7
2017-12-29T13:42:25.357Z,4.8
2017-12-29T13:43:26.161Z,4.7
2017-12-29T13:44:26.887Z,4.7
2017-12-29T13:45:27.676Z,4.8
2017-12-29T13:46:28.410Z,4.8
2017-12-29T13:47:29.215Z,4.8
2017-12-29T13:48:29.959Z,4.8
2017-12-29T13:49:30.762Z,4.8
2017-12-29T13:50:31.489Z,4.8
2017-12-29T13:51:32.235Z,4.8
2017-12-29T13:52:33.015Z,4.7
2017-12-29T13:53:33.810Z,4.7
2017-12-29T13:54:34.694Z,4.7
2017-12-29T13:55:36.581Z,4.7
2017-12-29T13:56:37.534Z,4.7
2017-12-29T13:57:38.259Z,4.6
2017-12-29T13:58:39.031Z,4.6
2017-12-29T13:59:39.838Z,4.6